Time;durP1;ratioP1;P1;durP2;ratioP2;P2;SDS_P1;SDS_P2;PMS_P1;PMS_P2;Temp;Humidity;BMP_temperature;BMP_pressure;BME280_temperature;BME280_humidity;BME280_pressure;Samples;Min_cycle;Max_cycle;Signal;HPM_P1;HPM_P2
2023/08/02 00:00:00;;;;;;;1999.90;999.90;;;16.90;99.90;;;;;;5014589;28;20176;-69
2023/08/02 00:02:26;;;;;;;1999.90;999.90;;;16.90;99.90;;;;;;5014288;28;20222;-69
2023/08/02 00:04:51;;;;;;;1999.90;999.90;;;16.80;99.90;;;;;;5013330;28;20215;-69
2023/08/02 00:07:17;;;;;;;1999.90;999.90;;;16.90;99.90;;;;;;5014223;28;20201;-69
2023/08/02 00:09:42;;;;;;;1999.90;999.90;;;16.80;99.90;;;;;;5014295;28;20691;-69
2023/08/02 00:12:08;;;;;;;1999.90;999.90;;;16.80;99.90;;;;;;5014103;28;20239;-69
2023/08/02 00:14:33;;;;;;;1999.90;999.90;;;16.80;99.90;;;;;;5014265;28;20627;-69
2023/08/02 00:16:59;;;;;;;1999.90;999.90;;;16.80;99.90;;;;;;5014248;28;20239;-69
2023/08/02 00:19:25;;;;;;;1999.90;999.90;;;16.80;99.90;;;;;;5014128;28;20173;-69
2023/08/02 00:21:50;;;;;;;1999.90;999.90;;;16.80;99.90;;;;;;5013765;28;20181;-69
2023/08/02 00:24:16;;;;;;;1999.90;999.90;;;16.80;99.90;;;;;;5013966;28;20710;-69
2023/08/02 00:26:41;;;;;;;1999.90;999.90;;;16.80;99.90;;;;;;5013936;28;20296;-69
2023/08/02 00:29:07;;;;;;;1999.90;999.90;;;16.80;99.90;;;;;;5013998;28;20676;-69
2023/08/02 00:31:33;;;;;;;1999.90;999.90;;;16.80;99.90;;;;;;5013682;28;20177;-69
2023/08/02 00:33:58;;;;;;;1999.90;999.90;;;16.80;99.90;;;;;;5013896;28;20575;-69
2023/08/02 00:36:24;;;;;;;1999.90;999.90;;;16.80;99.90;;;;;;5013760;28;20417;-69
2023/08/02 00:38:49;;;;;;;1999.90;999.90;;;16.70;99.90;;;;;;5013840;28;20177;-70
2023/08/02 00:41:15;;;;;;;1999.90;999.90;;;16.70;99.90;;;;;;5013511;28;20179;-70
2023/08/02 00:43:42;;;;;;;1999.90;999.90;;;16.70;99.90;;;;;;5013744;28;20632;-70
2023/08/02 00:46:09;;;;;;;1999.90;999.90;;;16.70;99.90;;;;;;5013643;28;20188;-70
2023/08/02 00:48:35;;;;;;;1999.90;999.90;;;16.70;99.90;;;;;;5013575;28;20613;-70
2023/08/02 00:51:01;;;;;;;1999.90;999.90;;;16.70;99.90;;;;;;5013245;28;20408;-70
2023/08/02 00:53:27;;;;;;;1999.90;999.90;;;16.80;99.90;;;;;;5013701;28;20407;-70
2023/08/02 00:55:55;;;;;;;1999.90;999.90;;;16.70;99.90;;;;;;5013352;28;20789;-70
2023/08/02 00:58:21;;;;;;;1999.90;999.90;;;16.80;99.90;;;;;;5013642;28;20406;-70
2023/08/02 01:00:47;;;;;;;1999.90;999.90;;;16.80;99.90;;;;;;5013476;28;20419;-70
2023/08/02 01:03:12;;;;;;;1999.90;999.90;;;16.80;99.90;;;;;;5013060;28;20174;-70
2023/08/02 01:05:45;;;;;;;1999.90;999.90;;;16.70;99.90;;;;;;5013249;28;20599;-70
2023/08/02 01:08:17;;;;;;;1999.90;999.90;;;16.70;99.90;;;;;;5013194;28;20572;-70
2023/08/02 01:10:49;;;;;;;1999.90;999.90;;;16.80;99.90;;;;;;5013294;28;20410;-70
2023/08/02 01:13:17;;;;;;;1999.90;999.90;;;16.80;99.90;;;;;;5013088;28;20482;-69
2023/08/02 01:15:44;;;;;;;1999.90;999.90;;;16.80;99.90;;;;;;5012793;28;20925;-68
2023/08/02 01:18:10;;;;;;;1999.90;999.90;;;16.90;99.90;;;;;;5013097;28;20850;-69
2023/08/02 01:20:35;;;;;;;1999.90;999.90;;;17.00;99.90;;;;;;5013055;28;20445;-69
2023/08/02 01:23:01;;;;;;;1999.90;999.90;;;16.90;99.90;;;;;;5012672;28;20431;-69
2023/08/02 01:25:31;;;;;;;1999.90;999.90;;;16.90;99.90;;;;;;5013018;28;20197;-68
2023/08/02 01:28:03;;;;;;;1999.90;999.90;;;17.00;99.90;;;;;;5012882;28;20223;-70
2023/08/02 01:30:39;;;;;;;1999.90;999.90;;;17.30;99.90;;;;;;5012873;28;20490;-70
2023/08/02 01:33:05;;;;;;;1999.90;999.90;;;17.00;99.90;;;;;;5012870;28;20494;-70
2023/08/02 01:35:32;;;;;;;1999.90;999.90;;;17.00;99.90;;;;;;5012807;28;20502;-70
2023/08/02 01:37:58;;;;;;;1999.90;999.90;;;17.00;99.90;;;;;;5012686;28;20968;-70
2023/08/02 01:40:24;;;;;;;1999.90;999.90;;;17.00;99.90;;;;;;5012823;28;20440;-70
2023/08/02 01:42:49;;;;;;;1999.90;999.90;;;17.00;99.90;;;;;;5012401;28;20462;-70
2023/08/02 01:45:15;;;;;;;1999.90;999.90;;;17.00;99.90;;;;;;5012561;28;20195;-70
2023/08/02 01:47:41;;;;;;;1999.90;999.90;;;17.10;99.90;;;;;;5012652;28;20235;-70
2023/08/02 01:50:06;;;;;;;1999.90;999.90;;;17.10;99.90;;;;;;5012605;28;20170;-70
2023/08/02 01:52:32;;;;;;;1999.90;999.90;;;17.10;99.90;;;;;;5012270;28;20169;-70
2023/08/02 01:54:58;;;;;;;1999.90;999.90;;;17.10;99.90;;;;;;5012473;28;20773;-70
2023/08/02 01:57:23;;;;;;;1999.90;999.90;;;17.10;99.90;;;;;;5012491;28;20217;-69
2023/08/02 01:59:49;;;;;;;1999.90;999.90;;;17.10;99.90;;;;;;5012398;28;20842;-70
2023/08/02 02:02:16;;;;;;;1999.90;999.90;;;17.10;99.90;;;;;;5012166;28;20171;-70
2023/08/02 02:04:41;;;;;;;1999.90;999.90;;;17.10;99.90;;;;;;5012454;28;20648;-70
2023/08/02 02:07:07;;;;;;;1999.90;999.90;;;17.10;99.90;;;;;;5012093;28;20466;-70
2023/08/02 02:09:33;;;;;;;1999.90;999.90;;;17.00;99.90;;;;;;5012328;28;20653;-69
2023/08/02 02:11:58;;;;;;;1999.90;999.90;;;17.00;99.90;;;;;;5011974;28;20190;-69
2023/08/02 02:14:24;;;;;;;1999.90;999.90;;;17.00;99.90;;;;;;5012375;28;20167;-69
2023/08/02 02:16:49;;;;;;;1999.90;999.90;;;17.00;99.90;;;;;;5012246;28;20193;-69
2023/08/02 02:19:15;;;;;;;1999.90;999.90;;;16.90;99.90;;;;;;5012193;28;20170;-69
2023/08/02 02:21:41;;;;;;;1999.90;999.90;;;16.90;99.90;;;;;;5011884;28;20223;-69
2023/08/02 02:24:06;;;;;;;1999.90;999.90;;;16.90;99.90;;;;;;5012194;28;20167;-69
2023/08/02 02:26:32;;;;;;;1999.90;999.90;;;16.80;99.90;;;;;;5013006;28;20514;-69
2023/08/02 02:28:57;;;;;;;1999.90;999.90;;;16.90;99.90;;;;;;5016248;28;20197;-69
2023/08/02 02:31:23;;;;;;;1999.90;999.90;;;16.80;99.90;;;;;;5015902;28;20172;-69
2023/08/02 02:33:48;;;;;;;1999.90;999.90;;;16.80;99.90;;;;;;5016174;28;20179;-69
2023/08/02 02:36:14;;;;;;;1999.90;999.90;;;16.80;99.90;;;;;;5016094;28;20201;-69
2023/08/02 02:38:40;;;;;;;1999.90;999.90;;;16.80;99.90;;;;;;5016110;28;20520;-70
2023/08/02 02:41:05;;;;;;;1999.90;999.90;;;16.80;99.90;;;;;;5015755;28;20184;-69
2023/08/02 02:43:31;;;;;;;1999.90;999.90;;;16.80;99.90;;;;;;5016005;28;20184;-70
2023/08/02 02:45:56;;;;;;;1999.90;999.90;;;16.80;99.90;;;;;;5015901;28;20192;-70
2023/08/02 02:48:22;;;;;;;1999.90;999.90;;;16.80;99.90;;;;;;5015844;28;20202;-70
2023/08/02 02:50:47;;;;;;;1999.90;999.90;;;16.70;99.90;;;;;;5015816;28;20631;-69
2023/08/02 02:53:13;;;;;;;1999.90;999.90;;;16.70;99.90;;;;;;5015652;28;20165;-69
2023/08/02 02:55:39;;;;;;;1999.90;999.90;;;16.70;99.90;;;;;;5015751;28;20188;-69
2023/08/02 02:58:04;;;;;;;1999.90;999.90;;;16.70;99.90;;;;;;5015747;28;20203;-69
2023/08/02 03:00:31;;;;;;;1999.90;999.90;;;16.70;99.90;;;;;;5015709;28;20168;-69
2023/08/02 03:02:57;;;;;;;1999.90;999.90;;;16.70;99.90;;;;;;5015489;28;20274;-69
2023/08/02 03:05:23;;;;;;;1999.90;999.90;;;16.70;99.90;;;;;;5015344;28;20474;-70
2023/08/02 03:07:48;;;;;;;1999.90;999.90;;;16.70;99.90;;;;;;5015501;28;20207;-70
2023/08/02 03:10:14;;;;;;;1999.90;999.90;;;16.70;99.90;;;;;;5015495;28;20165;-70
2023/08/02 03:12:40;;;;;;;1999.90;999.90;;;16.60;99.90;;;;;;5015164;28;20590;-70
2023/08/02 03:15:06;;;;;;;1999.90;999.90;;;16.60;99.90;;;;;;5015431;28;20667;-70
2023/08/02 03:17:32;;;;;;;1999.90;999.90;;;16.60;99.90;;;;;;5015489;28;20173;-69
2023/08/02 03:19:57;;;;;;;1999.90;999.90;;;16.60;99.90;;;;;;5015282;28;20488;-70
2023/08/02 03:22:23;;;;;;;1999.90;999.90;;;16.60;99.90;;;;;;5015067;28;20169;-70
2023/08/02 03:24:48;;;;;;;1999.90;999.90;;;16.60;99.90;;;;;;5015219;28;20255;-70
2023/08/02 03:27:14;;;;;;;1999.90;999.90;;;16.60;99.90;;;;;;5014984;28;20291;-69
2023/08/02 03:29:39;;;;;;;1999.90;999.90;;;16.60;99.90;;;;;;5015341;28;20212;-70
2023/08/02 03:32:06;;;;;;;1999.90;999.90;;;16.70;99.90;;;;;;5014818;28;20186;-70
2023/08/02 03:34:31;;;;;;;1999.90;999.90;;;16.70;99.90;;;;;;5015004;28;20175;-70
2023/08/02 03:36:57;;;;;;;1999.90;999.90;;;16.60;99.90;;;;;;5014959;28;20455;-70
2023/08/02 03:39:26;;;;;;;1999.90;999.90;;;16.60;99.90;;;;;;5014946;28;20264;-70
2023/08/02 03:41:53;;;;;;;1999.90;999.90;;;16.60;99.90;;;;;;5014589;28;20195;-70
2023/08/02 03:44:19;;;;;;;1999.90;999.90;;;16.60;99.90;;;;;;5015005;28;20532;-70
2023/08/02 03:46:44;;;;;;;1999.90;999.90;;;16.60;99.90;;;;;;5014672;28;20937;-70
2023/08/02 03:49:10;;;;;;;1999.90;999.90;;;16.60;99.90;;;;;;5014786;28;20441;-70
2023/08/02 03:51:35;;;;;;;1999.90;999.90;;;16.50;99.90;;;;;;5014532;28;20174;-70
2023/08/02 03:54:03;;;;;;;1999.90;999.90;;;16.60;99.90;;;;;;5014665;28;20252;-71
2023/08/02 03:56:29;;;;;;;1999.90;999.90;;;16.50;99.90;;;;;;5014581;28;20188;-72
2023/08/02 03:58:55;;;;;;;1999.90;999.90;;;16.50;99.90;;;;;;5014559;28;20968;-70
2023/08/02 04:01:21;;;;;;;1999.90;999.90;;;16.50;99.90;;;;;;5014292;28;20566;-71
2023/08/02 04:03:46;;;;;;;1999.90;999.90;;;16.60;99.90;;;;;;5014532;28;20407;-71
2023/08/02 04:06:12;;;;;;;1999.90;999.90;;;16.60;99.90;;;;;;5014289;28;20197;-71
2023/08/02 04:08:37;;;;;;;1999.90;999.90;;;16.60;99.90;;;;;;5014336;28;20206;-71
2023/08/02 04:11:07;;;;;;;1999.90;999.90;;;16.50;99.90;;;;;;5014050;28;20354;-71
2023/08/02 04:13:33;;;;;;;1999.90;999.90;;;16.50;99.90;;;;;;5014365;28;20163;-71
2023/08/02 04:15:58;;;;;;;1999.90;999.90;;;16.50;99.90;;;;;;5014156;28;20510;-71
2023/08/02 04:18:24;;;;;;;1999.90;999.90;;;16.60;99.90;;;;;;5014182;28;20442;-71
2023/08/02 04:20:49;;;;;;;1999.90;999.90;;;16.60;99.90;;;;;;5014169;28;20173;-71
2023/08/02 04:23:15;;;;;;;1999.90;999.90;;;16.60;99.90;;;;;;5013893;28;20663;-71
2023/08/02 04:25:41;;;;;;;1999.90;999.90;;;16.60;99.90;;;;;;5013915;28;20192;-71
2023/08/02 04:28:06;;;;;;;1999.90;999.90;;;16.60;99.90;;;;;;5014002;28;20277;-72
2023/08/02 04:30:32;;;;;;;1999.90;999.90;;;16.50;99.90;;;;;;5014005;28;20174;-72
2023/08/02 04:32:58;;;;;;;1999.90;999.90;;;16.60;99.90;;;;;;5013633;28;20172;-71
2023/08/02 04:35:23;;;;;;;1999.90;999.90;;;16.50;99.90;;;;;;5013867;28;20185;-71
2023/08/02 04:37:49;;;;;;;1999.90;999.90;;;16.60;99.90;;;;;;5013887;28;20178;-72
2023/08/02 04:40:15;;;;;;;1999.90;999.90;;;16.50;99.90;;;;;;5013783;28;20187;-71
2023/08/02 04:42:41;;;;;;;1999.90;999.90;;;16.50;99.90;;;;;;5013560;28;20169;-71
2023/08/02 04:45:07;;;;;;;1999.90;999.90;;;16.30;99.90;;;;;;5013468;28;20415;-72
2023/08/02 04:47:33;;;;;;;1999.90;999.90;;;16.40;99.90;;;;;;5013514;28;20205;-72
2023/08/02 04:49:59;;;;;;;1999.90;999.90;;;16.40;99.90;;;;;;5013118;28;20408;-71
2023/08/02 04:52:24;;;;;;;1999.90;999.90;;;16.50;99.90;;;;;;5013223;28;20204;-70
2023/08/02 04:54:50;;;;;;;1999.90;999.90;;;;;;;;;;5013492;28;20173;-72
2023/08/02 04:57:16;;;;;;;1999.90;999.90;;;16.50;99.90;;;;;;5013494;28;20194;-72
2023/08/02 04:59:41;;;;;;;1999.90;999.90;;;16.50;99.90;;;;;;5013546;28;20822;-71
2023/08/02 05:02:07;;;;;;;1999.90;999.90;;;16.50;99.90;;;;;;5013090;28;20172;-71
2023/08/02 05:04:32;;;;;;;1999.90;999.90;;;16.60;99.90;;;;;;5013409;28;20187;-72
2023/08/02 05:06:58;;;;;;;1999.90;999.90;;;16.60;99.90;;;;;;5013450;28;20277;-70
2023/08/02 05:09:23;;;;;;;1999.90;999.90;;;16.50;99.90;;;;;;5013301;28;20647;-70
2023/08/02 05:11:49;;;;;;;1999.90;999.90;;;16.60;99.90;;;;;;5013094;28;20255;-70
2023/08/02 05:14:15;;;;;;;1999.90;999.90;;;16.60;99.90;;;;;;5013320;28;20196;-70
2023/08/02 05:16:40;;;;;;;1999.90;999.90;;;16.60;99.90;;;;;;5012604;28;20612;-70
2023/08/02 05:19:06;;;;;;;1999.90;999.90;;;16.70;99.90;;;;;;5012568;28;20219;-70
2023/08/02 05:21:31;;;;;;;1999.90;999.90;;;16.70;99.90;;;;;;5012706;28;20181;-70
2023/08/02 05:23:57;;;;;;;1999.90;999.90;;;16.80;99.90;;;;;;5013020;28;20200;-69
2023/08/02 05:26:23;;;;;;;1999.90;999.90;;;16.80;99.90;;;;;;5012922;28;20196;-70
2023/08/02 05:28:49;;;;;;;1999.90;999.90;;;16.80;99.90;;;;;;5012964;28;20211;-70
2023/08/02 05:31:14;;;;;;;1999.90;999.90;;;16.90;99.90;;;;;;5012601;28;20888;-70
2023/08/02 05:33:40;;;;;;;1999.90;999.90;;;16.90;99.90;;;;;;5012874;28;20161;-70
2023/08/02 05:36:06;;;;;;;1999.90;999.90;;;16.90;99.90;;;;;;5012772;28;20203;-70
2023/08/02 05:38:38;;;;;;;1999.90;999.90;;;16.90;99.90;;;;;;5012732;28;20907;-70
2023/08/02 05:41:03;;;;;;;1999.90;999.90;;;16.90;99.90;;;;;;5012461;28;20419;-70
2023/08/02 05:43:30;;;;;;;1999.90;999.90;;;16.90;99.90;;;;;;5012734;28;20423;-70
2023/08/02 05:45:56;;;;;;;1999.90;999.90;;;17.00;99.90;;;;;;5012506;28;20430;-70
2023/08/02 05:48:22;;;;;;;1999.90;999.90;;;17.00;99.90;;;;;;5012709;28;20796;-70
2023/08/02 05:50:47;;;;;;;1999.90;999.90;;;17.00;99.90;;;;;;5012534;28;20410;-71
2023/08/02 05:53:13;;;;;;;1999.90;999.90;;;17.00;99.90;;;;;;5012386;28;20719;-71
2023/08/02 05:55:39;;;;;;;1999.90;999.90;;;17.10;99.90;;;;;;5012498;28;20329;-70
2023/08/02 05:58:04;;;;;;;1999.90;999.90;;;17.00;99.90;;;;;;5012556;28;20586;-70
2023/08/02 06:00:30;;;;;;;1999.90;999.90;;;17.00;99.90;;;;;;5012230;28;20185;-71
2023/08/02 06:02:55;;;;;;;1999.90;999.90;;;17.00;99.90;;;;;;5011609;28;20209;-71
2023/08/02 06:05:21;;;;;;;1999.90;999.90;;;16.90;99.90;;;;;;5012201;28;20210;-70
2023/08/02 06:07:46;;;;;;;1999.90;999.90;;;16.90;99.90;;;;;;5011631;28;20577;-70
2023/08/02 06:10:12;;;;;;;1999.90;999.90;;;16.90;99.90;;;;;;5012360;28;20634;-69
2023/08/02 06:12:38;;;;;;;1999.90;999.90;;;16.90;99.90;;;;;;5011971;28;20181;-70
2023/08/02 06:15:04;;;;;;;1999.90;999.90;;;16.80;99.90;;;;;;5012200;28;20656;-70
2023/08/02 06:17:30;;;;;;;1999.90;999.90;;;16.80;99.90;;;;;;5012149;28;20620;-71
2023/08/02 06:19:55;;;;;;;1999.90;999.90;;;16.90;99.90;;;;;;5012158;28;20504;-71
2023/08/02 06:22:21;;;;;;;1999.90;999.90;;;16.80;99.90;;;;;;5012006;28;20303;-71
2023/08/02 06:24:46;;;;;;;1999.90;999.90;;;16.90;99.90;;;;;;5012209;28;20595;-71
2023/08/02 06:27:12;;;;;;;1999.90;999.90;;;16.90;99.90;;;;;;5012200;28;20204;-71
2023/08/02 06:29:37;;;;;;;1999.90;999.90;;;16.90;99.90;;;;;;5012142;28;20177;-71
2023/08/02 06:32:06;;;;;;;1999.90;999.90;;;16.90;99.90;;;;;;5011841;28;20173;-71
2023/08/02 06:34:31;;;;;;;1999.90;999.90;;;16.90;99.90;;;;;;5012039;28;20222;-71
2023/08/02 06:36:57;;;;;;;1999.90;999.90;;;17.00;99.90;;;;;;5012106;28;20845;-71
2023/08/02 06:39:22;;;;;;;1999.90;999.90;;;17.00;99.90;;;;;;5012076;28;20177;-71
2023/08/02 06:41:48;;;;;;;1999.90;999.90;;;17.10;99.90;;;;;;5011798;28;20521;-70
2023/08/02 06:44:14;;;;;;;1999.90;999.90;;;17.10;99.90;;;;;;5012079;28;20258;-70
2023/08/02 06:46:40;;;;;;;1999.90;999.90;;;17.10;99.90;;;;;;5011807;28;20188;-70
2023/08/02 06:49:06;;;;;;;1999.90;999.90;;;17.10;99.90;;;;;;5011876;28;20204;-70
2023/08/02 06:51:32;;;;;;;1999.90;999.90;;;17.20;99.90;;;;;;5011665;28;20415;-70
2023/08/02 06:53:57;;;;;;;1999.90;999.90;;;17.20;99.90;;;;;;5011960;28;20256;-70
2023/08/02 06:56:23;;;;;;;1999.90;999.90;;;17.20;99.90;;;;;;5011784;28;20189;-70
2023/08/02 06:58:49;;;;;;;1999.90;999.90;;;17.30;99.90;;;;;;5011990;28;20294;-70
2023/08/02 07:01:16;;;;;;;1999.90;999.90;;;17.40;99.90;;;;;;5011368;28;20511;-70
2023/08/02 07:03:43;;;;;;;1999.90;999.90;;;17.50;99.90;;;;;;5011809;28;20566;-70
2023/08/02 07:06:13;;;;;;;1999.90;999.90;;;17.60;99.90;;;;;;5011342;28;20446;-70
2023/08/02 07:08:39;;;;;;;1999.90;999.90;;;17.60;99.90;;;;;;5011679;28;20504;-70
2023/08/02 07:11:05;;;;;;;1999.90;999.90;;;17.70;99.90;;;;;;5011288;28;20512;-70
2023/08/02 07:13:32;;;;;;;1999.90;999.90;;;17.80;99.90;;;;;;5013792;28;20413;-70
2023/08/02 07:15:59;;;;;;;1999.90;999.90;;;17.80;99.90;;;;;;5014964;28;20878;-69
2023/08/02 07:18:24;;;;;;;1999.90;999.90;;;17.90;99.90;;;;;;5014669;28;20429;-70
2023/08/02 07:20:50;;;;;;;1999.90;999.90;;;17.90;99.90;;;;;;5015227;28;20461;-69
2023/08/02 07:23:15;;;;;;;1999.90;999.90;;;18.00;99.90;;;;;;5015103;28;20212;-70
2023/08/02 07:25:41;;;;;;;1999.90;999.90;;;18.00;99.90;;;;;;5015183;28;20611;-70
2023/08/02 07:28:06;;;;;;;1999.90;999.90;;;17.90;99.90;;;;;;5015133;28;20201;-70
2023/08/02 07:30:32;;;;;;;1999.90;999.90;;;18.00;99.90;;;;;;5015196;28;20165;-70
2023/08/02 07:32:58;;;;;;;1999.90;999.90;;;18.00;99.90;;;;;;5014763;28;20205;-70
2023/08/02 07:35:24;;;;;;;1999.90;999.90;;;18.10;99.90;;;;;;5015004;28;20189;-70
2023/08/02 07:37:49;;;;;;;1999.90;999.90;;;18.40;99.90;;;;;;5014975;28;20184;-70
2023/08/02 07:40:15;;;;;;;1999.90;999.90;;;18.60;99.90;;;;;;5014555;28;20651;-70
2023/08/02 07:42:41;;;;;;;1999.90;999.90;;;18.80;99.90;;;;;;5014535;28;20254;-70
2023/08/02 07:45:10;;;;;;;1999.90;999.90;;;18.90;99.90;;;;;;5014826;28;20175;-70
2023/08/02 07:47:37;;;;;;;1999.90;999.90;;;19.10;99.90;;;;;;5014202;28;20206;-70
2023/08/02 07:50:07;;;;;;;1999.90;999.90;;;19.10;99.90;;;;;;5014652;28;20418;-71
2023/08/02 07:52:34;;;;;;;1999.90;999.90;;;19.10;99.90;;;;;;5014562;28;20466;-70
2023/08/02 07:55:00;;;;;;;1999.90;999.90;;;19.20;99.90;;;;;;5014581;28;20820;-71
2023/08/02 07:57:29;;;;;;;1999.90;999.90;;;19.20;99.90;;;;;;5014673;28;20436;-71
2023/08/02 07:59:57;;;;;;;1999.90;999.90;;;19.40;99.90;;;;;;5014082;28;20208;-71
2023/08/02 08:02:22;;;;;;;1999.90;999.90;;;19.60;99.90;;;;;;5014080;28;20907;-70
2023/08/02 08:04:48;;;;;;;1999.90;999.90;;;19.70;99.90;;;;;;5013254;28;20558;-71
2023/08/02 08:07:14;;;;;;;1999.90;999.90;;;19.80;99.90;;;;;;5014105;28;20674;-72
2023/08/02 08:09:39;;;;;;;1999.90;999.90;;;19.90;99.90;;;;;;5014445;28;20271;-70
2023/08/02 08:12:06;;;;;;;1999.90;999.90;;;19.90;99.90;;;;;;5012778;28;20211;-70
2023/08/02 08:14:33;;;;;;;1999.90;999.90;;;19.90;99.90;;;;;;5013132;28;20179;-70
2023/08/02 08:16:59;;;;;;;1999.90;999.90;;;19.90;99.90;;;;;;5014188;28;20473;-70
2023/08/02 08:19:28;;;;;;;1999.90;999.90;;;19.70;99.90;;;;;;5014201;28;20415;-70
2023/08/02 08:21:54;;;;;;;1999.90;999.90;;;19.60;99.90;;;;;;5013836;28;20491;-70
2023/08/02 08:24:20;;;;;;;1999.90;999.90;;;19.60;99.90;;;;;;5013251;28;20565;-70
2023/08/02 08:26:45;;;;;;;1999.90;999.90;;;19.60;99.90;;;;;;5014062;28;20610;-70
2023/08/02 08:29:11;;;;;;;1999.90;999.90;;;19.60;99.90;;;;;;5012321;28;20207;-68
2023/08/02 08:31:37;;;;;;;1999.90;999.90;;;19.60;99.90;;;;;;5010332;28;20631;-69
2023/08/02 08:34:03;;;;;;;1999.90;999.90;;;19.50;99.90;;;;;;5009592;28;20419;-69
2023/08/02 08:36:31;;;;;;;1999.90;999.90;;;19.50;99.90;;;;;;5009066;28;20201;-68
2023/08/02 08:38:57;;;;;;;1999.90;999.90;;;19.50;99.90;;;;;;5009965;28;20264;-68
2023/08/02 08:41:23;;;;;;;1999.90;999.90;;;19.50;99.90;;;;;;5009102;28;20427;-68
2023/08/02 08:43:49;;;;;;;1999.90;999.90;;;19.50;99.90;;;;;;5009111;28;20426;-71
2023/08/02 08:46:15;;;;;;;1999.90;999.90;;;19.60;99.90;;;;;;5009952;28;20433;-70
2023/08/02 08:48:41;;;;;;;1999.90;999.90;;;19.60;99.90;;;;;;5009109;28;20202;-69
2023/08/02 08:51:09;;;;;;;1999.90;999.90;;;19.70;99.90;;;;;;5008895;28;20425;-70
2023/08/02 08:53:36;;;;;;;1999.90;999.90;;;19.70;99.90;;;;;;5009888;28;20497;-72
2023/08/02 08:56:04;;;;;;;1999.90;999.90;;;19.70;99.90;;;;;;5009063;28;20433;-70
2023/08/02 08:58:32;;;;;;;1999.90;999.90;;;19.70;99.90;;;;;;5008796;28;20430;-70
2023/08/02 09:00:58;;;;;;;1999.90;999.90;;;19.70;99.90;;;;;;5009334;28;20471;-73
2023/08/02 09:03:24;;;;;;;1999.90;999.90;;;19.80;99.90;;;;;;5009042;28;20420;-70
2023/08/02 09:05:50;;;;;;;1999.90;999.90;;;19.80;99.90;;;;;;5008579;28;20207;-71
2023/08/02 09:08:16;;;;;;;1999.90;999.90;;;19.90;99.90;;;;;;5009542;28;20469;-71
2023/08/02 09:10:42;;;;;;;1999.90;999.90;;;20.00;99.90;;;;;;5008765;28;20906;-71
2023/08/02 09:13:21;;;;;;;1999.90;999.90;;;20.20;99.90;;;;;;5008385;28;20434;-71
2023/08/02 09:16:09;;;;;;;1999.90;999.90;;;20.30;99.90;;;;;;5008486;28;20205;-69
2023/08/02 09:18:39;;;;;;;1999.90;999.90;;;20.50;99.90;;;;;;5008777;28;20455;-69
2023/08/02 09:21:05;;;;;;;1999.90;999.90;;;20.70;99.90;;;;;;5009715;28;20431;-70
2023/08/02 09:23:31;;;;;;;1999.90;999.90;;;20.80;99.90;;;;;;5012556;28;20429;-68
2023/08/02 09:26:23;;;;;;;1999.90;999.90;;;21.00;99.90;;;;;;5012638;28;20441;-70
2023/08/02 09:29:04;;;;;;;1999.90;999.90;;;21.30;99.90;;;;;;4999035;28;20309;-68
2023/08/02 09:31:32;;;;;;;1999.90;999.90;;;21.40;99.90;;;;;;5010671;28;20432;-69
2023/08/02 09:33:59;;;;;;;1999.90;999.90;;;21.60;99.90;;;;;;5012706;28;20436;-71
2023/08/02 09:36:29;;;;;;;1999.90;999.90;;;21.70;99.90;;;;;;5012587;28;20421;-71
2023/08/02 09:39:02;;;;;;;1999.90;999.90;;;21.90;99.90;;;;;;5012708;28;20432;-71
2023/08/02 09:41:28;;;;;;;1999.90;999.90;;;22.00;99.90;;;;;;5013582;28;20403;-69
2023/08/02 09:43:54;;;;;;;1999.90;999.90;;;22.00;99.90;;;;;;5009878;28;20414;-69
2023/08/02 09:46:33;;;;;;;1999.90;999.90;;;22.00;99.90;;;;;;5012246;28;20476;-69
2023/08/02 09:49:00;;;;;;;1999.90;999.90;;;21.90;99.90;;;;;;5012317;28;20457;-71
2023/08/02 09:51:42;;;;;;;1999.90;999.90;;;21.80;99.90;;;;;;5011665;28;20769;-72
2023/08/02 09:54:09;;;;;;;1999.90;999.90;;;21.70;99.90;;;;;;5012423;28;20414;-72
2023/08/02 09:56:36;;;;;;;1999.90;999.90;;;21.50;99.90;;;;;;5012228;28;20938;-71
2023/08/02 09:59:03;;;;;;;1999.90;999.90;;;21.30;99.90;;;;;;5012438;28;20456;-71
2023/08/02 10:01:30;;;;;;;1999.90;999.90;;;21.30;99.90;;;;;;5011334;28;20416;-71
2023/08/02 10:03:59;;;;;;;1999.90;999.90;;;21.40;99.90;;;;;;4998256;28;20912;-69
2023/08/02 10:06:32;;;;;;;1999.90;999.90;;;21.50;99.90;;;;;;5006625;28;20460;-69
2023/08/02 10:09:04;;;;;;;1999.90;999.90;;;21.70;99.90;;;;;;5001918;28;20500;-69
2023/08/02 10:11:38;;;;;;;1999.90;999.90;;;22.00;99.90;;;;;;5004897;28;20427;-68
2023/08/02 10:14:04;;;;;;;1999.90;999.90;;;22.30;99.90;;;;;;5011217;28;20410;-71
2023/08/02 10:16:31;;;;;;;1999.90;999.90;;;22.70;99.90;;;;;;5011809;28;20918;-70
2023/08/02 10:18:58;;;;;;;1999.90;999.90;;;22.90;99.90;;;;;;5011109;28;20422;-69
2023/08/02 10:21:24;;;;;;;1999.90;999.90;;;22.90;99.90;;;;;;5007539;28;20501;-68
2023/08/02 10:23:50;;;;;;;1999.90;999.90;;;23.00;99.90;;;;;;5004841;28;20434;-69
2023/08/02 10:26:17;;;;;;;1999.90;999.90;;;23.10;99.90;;;;;;5011270;28;20518;-68
2023/08/02 10:28:43;;;;;;;1999.90;999.90;;;23.00;99.90;;;;;;5003241;28;20470;-68
2023/08/02 10:31:10;;;;;;;1999.90;999.90;;;23.00;99.90;;;;;;5007832;28;20916;-73
2023/08/02 10:33:35;;;;;;;1999.90;999.90;;;23.00;99.90;;;;;;5011151;28;20423;-72
2023/08/02 10:36:06;;;;;;;1999.90;999.90;;;23.20;99.90;;;;;;5011600;28;20513;-71
2023/08/02 10:38:44;;;;;;;1999.90;999.90;;;23.30;99.90;;;;;;5002032;28;20183;-69
2023/08/02 10:41:19;;;;;;;1999.90;999.90;;;23.30;99.90;;;;;;5008871;28;20854;-69
2023/08/02 10:43:53;;;;;;;1999.90;999.90;;;23.30;99.90;;;;;;5010807;28;20412;-71
2023/08/02 10:46:27;;;;;;;1999.90;999.90;;;23.40;99.90;;;;;;5011322;28;20439;-70
2023/08/02 10:49:13;;;;;;;1999.90;999.90;;;23.50;99.90;;;;;;5006671;28;20454;-70
2023/08/02 10:51:38;;;;;;;1999.90;999.90;;;23.50;99.90;;;;;;5014493;28;20464;-70
2023/08/02 10:54:25;;;;;;;1999.90;999.90;;;23.30;99.90;;;;;;5015430;28;20418;-70
2023/08/02 10:56:53;;;;;;;1999.90;999.90;;;23.20;99.90;;;;;;5014898;28;20180;-70
2023/08/02 10:59:25;;;;;;;1999.90;999.90;;;23.30;99.90;;;;;;5014926;28;20435;-70
2023/08/02 11:01:55;;;;;;;1999.90;999.90;;;23.40;99.90;;;;;;5014436;28;20413;-70
2023/08/02 11:04:20;;;;;;;1999.90;999.90;;;23.40;99.90;;;;;;5014687;28;20404;-70
2023/08/02 11:06:46;;;;;;;1999.90;999.90;;;23.40;99.90;;;;;;5014710;28;20457;-70
2023/08/02 11:09:11;;;;;;;1999.90;999.90;;;23.50;99.90;;;;;;5014992;28;20255;-70
2023/08/02 11:11:38;;;;;;;1999.90;999.90;;;23.70;99.90;;;;;;5013945;28;20172;-70
2023/08/02 11:14:04;;;;;;;1999.90;999.90;;;24.00;99.90;;;;;;5015341;28;20517;-70
2023/08/02 11:16:30;;;;;;;1999.90;999.90;;;24.30;99.90;;;;;;5014844;28;20434;-70
2023/08/02 11:18:56;;;;;;;1999.90;999.90;;;24.50;99.90;;;;;;5013908;28;20431;-68
2023/08/02 11:21:21;;;;;;;1999.90;999.90;;;24.80;99.90;;;;;;5013228;28;20752;-71
2023/08/02 11:23:49;;;;;;;1999.90;999.90;;;25.00;99.90;;;;;;5015143;28;20419;-71
2023/08/02 11:26:18;;;;;;;1999.90;999.90;;;25.20;99.90;;;;;;5013655;28;20196;-71
2023/08/02 11:28:45;;;;;;;1999.90;999.90;;;25.40;99.90;;;;;;5014860;28;20451;-70
2023/08/02 11:31:11;;;;;;;1999.90;999.90;;;25.50;99.90;;;;;;5014116;28;20398;-71
2023/08/02 11:33:38;;;;;;;1999.90;999.90;;;25.40;99.90;;;;;;5014158;28;20438;-71
2023/08/02 11:36:04;;;;;;;1999.90;999.90;;;25.20;99.90;;;;;;5014731;28;20788;-71
2023/08/02 11:38:31;;;;;;;1999.90;999.90;;;24.90;99.90;;;;;;5014409;28;20386;-71
2023/08/02 11:40:57;;;;;;;1999.90;999.90;;;24.90;99.90;;;;;;5013148;28;20393;-70
2023/08/02 11:43:36;;;;;;;1999.90;999.90;;;24.90;99.90;;;;;;5014421;28;20934;-70
2023/08/02 11:46:21;;;;;;;1999.90;999.90;;;24.90;99.90;;;;;;5014228;28;20775;-70
2023/08/02 11:48:49;;;;;;;1999.90;999.90;;;25.10;99.90;;;;;;5013641;28;20843;-70
2023/08/02 11:51:20;;;;;;;1999.90;999.90;;;25.20;99.90;;;;;;5013220;28;20771;-70
2023/08/02 11:53:57;;;;;;;1999.90;999.90;;;25.30;99.90;;;;;;5011823;28;20400;-72
2023/08/02 11:56:23;;;;;;;1999.90;999.90;;;25.40;99.90;;;;;;5012321;28;20450;-70